Time;durP1;ratioP1;P1;durP2;ratioP2;P2;SDS_P1;SDS_P2;PMS_P1;PMS_P2;Temp;Humidity;BMP_temperature;BMP_pressure;BME280_temperature;BME280_humidity;BME280_pressure;Samples;Min_cycle;Max_cycle;Signal;HPM_P1;HPM_P2
2023/07/17 00:01:56;;;;;;;;;;;;;;;21.79;100.00;95876.19;10481463;28;1875;-67
2023/07/17 00:06:59;;;;;;;;;;;;;;;21.96;100.00;95866.16;10477342;28;2094;-67
2023/07/17 00:12:04;;;;;;;;;;;;;;;21.74;100.00;95883.81;10473331;28;2165;-67
2023/07/17 00:17:08;;;;;;;;;;;;;;;21.85;100.00;95874.81;10446688;28;2655;-67
2023/07/17 00:22:11;;;;;;;;;;;;;;;22.13;100.00;95885.84;10466072;28;2108;-67
2023/07/17 00:27:14;;;;;;;;;;;;;;;22.13;100.00;95891.34;10461168;28;1914;-67
2023/07/17 00:32:17;;;;;;;;;;;;;;;22.15;100.00;95885.53;10471468;28;1980;-67
2023/07/17 00:37:21;;;;;;;;;;;;;;;22.13;100.00;95883.13;10474622;28;2174;-65
2023/07/17 00:42:23;;;;;;;;;;;;;;;22.10;100.00;95886.56;10473460;28;5031;-67
2023/07/17 00:47:27;;;;;;;;;;;;;;;22.02;100.00;95883.94;10465070;28;1946;-68
2023/07/17 00:52:30;;;;;;;;;;;;;;;21.92;100.00;95879.72;10465236;28;1964;-71
2023/07/17 00:57:33;;;;;;;;;;;;;;;22.05;100.00;95873.06;10460304;28;1988;-68
2023/07/17 01:02:36;;;;;;;;;;;;;;;22.01;100.00;95866.72;10474393;28;1902;-68
2023/07/17 01:07:40;;;;;;;;;;;;;;;22.06;100.00;95862.91;10469523;28;1966;-68
2023/07/17 01:12:45;;;;;;;;;;;;;;;22.11;100.00;95865.47;10475224;28;1922;-67
2023/07/17 01:17:50;;;;;;;;;;;;;;;22.04;100.00;95874.22;10466159;28;2043;-67
2023/07/17 01:22:53;;;;;;;;;;;;;;;22.05;100.00;95875.81;10474603;28;1985;-68
2023/07/17 01:27:56;;;;;;;;;;;;;;;21.97;100.00;95876.75;10475493;28;2056;-68
2023/07/17 01:32:59;;;;;;;;;;;;;;;21.91;100.00;95871.84;10466006;28;1965;-69
2023/07/17 01:38:03;;;;;;;;;;;;;;;21.96;100.00;95868.88;10473565;28;2065;-66
2023/07/17 01:43:06;;;;;;;;;;;;;;;21.84;100.00;95866.94;10468777;28;5078;-67
2023/07/17 01:48:10;;;;;;;;;;;;;;;21.72;100.00;95853.28;10470399;28;1962;-67
2023/07/17 01:53:13;;;;;;;;;;;;;;;21.67;100.00;95862.50;10469036;28;1977;-68
2023/07/17 01:58:15;;;;;;;;;;;;;;;21.62;100.00;95862.72;10472128;28;1926;-69
2023/07/17 02:03:20;;;;;;;;;;;;;;;21.52;100.00;95872.19;10468959;28;2017;-69
2023/07/17 02:08:23;;;;;;;;;;;;;;;21.59;100.00;95874.38;10470809;28;2297;-68
2023/07/17 02:13:30;;;;;;;;;;;;;;;21.61;100.00;95879.50;10465005;28;1978;-69
2023/07/17 02:18:32;;;;;;;;;;;;;;;21.77;100.00;95874.94;10442519;28;2075;-67
2023/07/17 02:23:35;;;;;;;;;;;;;;;21.69;100.00;95870.34;10458083;28;2054;-67
2023/07/17 02:28:38;;;;;;;;;;;;;;;21.36;100.00;95873.19;10460220;28;1965;-68
2023/07/17 02:33:41;;;;;;;;;;;;;;;21.37;100.00;95883.78;10468619;28;1964;-68
2023/07/17 02:38:44;;;;;;;;;;;;;;;21.05;100.00;95901.81;10469242;28;2010;-67
2023/07/17 02:43:48;;;;;;;;;;;;;;;20.92;100.00;95922.81;10458323;28;5249;-68
2023/07/17 02:48:51;;;;;;;;;;;;;;;20.46;100.00;95908.28;10459452;28;2105;-76
2023/07/17 02:53:54;;;;;;;;;;;;;;;19.87;100.00;95896.63;10445331;28;2110;-77
2023/07/17 02:58:57;;;;;;;;;;;;;;;19.57;100.00;95893.84;10461523;28;2474;-79
2023/07/17 03:04:00;;;;;;;;;;;;;;;18.99;100.00;95903.53;10461954;28;2290;-78
2023/07/17 03:09:06;;;;;;;;;;;;;;;19.01;100.00;95925.78;10463051;28;1950;-77
2023/07/17 03:14:10;;;;;;;;;;;;;;;18.84;100.00;95925.84;10464031;28;2036;-74
2023/07/17 03:19:12;;;;;;;;;;;;;;;18.70;100.00;95933.34;10458730;28;1968;-76
2023/07/17 03:24:15;;;;;;;;;;;;;;;18.87;100.00;95958.66;10457013;28;2240;-77
2023/07/17 03:29:19;;;;;;;;;;;;;;;18.77;100.00;95980.78;10467574;28;2243;-82
2023/07/17 03:34:23;;;;;;;;;;;;;;;18.79;100.00;95956.75;10444169;28;2045;-77
2023/07/17 03:39:26;;;;;;;;;;;;;;;18.81;100.00;95959.94;10452458;28;2080;-78
2023/07/17 03:44:29;;;;;;;;;;;;;;;18.80;100.00;95958.34;10459638;28;5391;-78
2023/07/17 03:49:31;;;;;;;;;;;;;;;18.94;100.00;95979.97;10467459;28;2137;-76
2023/07/17 03:54:34;;;;;;;;;;;;;;;18.87;100.00;95976.91;10456102;28;1990;-80
2023/07/17 03:59:37;;;;;;;;;;;;;;;18.89;100.00;96000.00;10464206;28;1996;-76
2023/07/17 04:04:40;;;;;;;;;;;;;;;18.74;100.00;95997.75;10470841;28;1933;-77
2023/07/17 04:09:43;;;;;;;;;;;;;;;18.84;100.00;95980.31;10467105;28;1973;-78
2023/07/17 04:14:45;;;;;;;;;;;;;;;19.07;100.00;95981.69;10465047;28;1934;-80
2023/07/17 04:19:50;;;;;;;;;;;;;;;19.05;100.00;96008.47;10465652;28;2009;-79
2023/07/17 04:24:53;;;;;;;;;;;;;;;18.99;100.00;96028.84;10470153;28;2104;-79
2023/07/17 04:29:56;;;;;;;;;;;;;;;19.06;100.00;96033.81;10467397;28;1938;-79
2023/07/17 04:34:58;;;;;;;;;;;;;;;19.13;100.00;96043.09;10470734;28;2242;-79
2023/07/17 04:40:01;;;;;;;;;;;;;;;19.06;100.00;96039.25;10476951;28;2075;-78
2023/07/17 04:45:05;;;;;;;;;;;;;;;19.24;100.00;96035.41;10467167;28;2160;-78
2023/07/17 04:50:07;;;;;;;;;;;;;;;19.37;100.00;96034.41;10465379;28;1980;-79
2023/07/17 04:55:10;;;;;;;;;;;;;;;19.55;100.00;96018.03;10450801;28;2270;-79
2023/07/17 05:00:13;;;;;;;;;;;;;;;19.57;100.00;96013.84;10460821;28;1927;-78
2023/07/17 05:05:17;;;;;;;;;;;;;;;19.72;100.00;96042.53;10464554;28;1970;-78
2023/07/17 05:10:19;;;;;;;;;;;;;;;19.52;100.00;96065.00;10470529;28;2260;-78
2023/07/17 05:15:22;;;;;;;;;;;;;;;19.07;100.00;96082.50;10460008;28;2148;-78
2023/07/17 05:20:25;;;;;;;;;;;;;;;19.11;100.00;96088.13;10466108;28;1965;-78
2023/07/17 05:25:28;;;;;;;;;;;;;;;19.14;100.00;96092.94;10465084;28;1946;-77
2023/07/17 05:30:31;;;;;;;;;;;;;;;19.17;100.00;96108.66;10467192;28;1996;-78
2023/07/17 05:35:34;;;;;;;;;;;;;;;19.34;100.00;96116.84;10463021;28;1993;-79
2023/07/17 05:40:39;;;;;;;;;;;;;;;19.59;100.00;96112.50;10449430;28;5117;-80
2023/07/17 05:45:52;;;;;;;;;;;;;;;19.54;100.00;96118.09;10471819;28;1980;-79
2023/07/17 05:51:31;;;;;;;;;;;;;;;19.51;100.00;96107.84;10431927;28;2377;-69
2023/07/17 05:56:35;;;;;;;;;;;;;;;19.56;100.00;96113.13;10465811;28;1988;-71
2023/07/17 06:01:39;;;;;;;;;;;;;;;19.82;100.00;96106.84;10461380;28;2061;-72
2023/07/17 06:06:42;;;;;;;;;;;;;;;19.95;100.00;96087.56;10473526;28;2061;-70
2023/07/17 06:11:45;;;;;;;;;;;;;;;19.35;100.00;96093.91;10466498;28;1988;-68
2023/07/17 06:16:48;;;;;;;;;;;;;;;19.94;100.00;96077.78;10470941;28;1956;-69
2023/07/17 06:21:51;;;;;;;;;;;;;;;20.23;100.00;96084.41;10466348;28;2066;-70
2023/07/17 06:26:54;;;;;;;;;;;;;;;20.39;100.00;96096.38;10468789;28;2043;-69
2023/07/17 06:31:59;;;;;;;;;;;;;;;21.33;100.00;96103.56;10474577;28;1989;-71
2023/07/17 06:37:03;;;;;;;;;;;;;;;21.47;100.00;96104.88;10463532;28;2124;-69
2023/07/17 06:42:08;;;;;;;;;;;;;;;20.96;100.00;96117.78;10449126;28;4954;-71
2023/07/17 06:47:11;;;;;;;;;;;;;;;20.51;100.00;96129.28;10463874;28;2342;-70
2023/07/17 06:52:33;;;;;;;;;;;;;;;20.50;100.00;96129.63;10457616;28;2046;-67
2023/07/17 06:57:36;;;;;;;;;;;;;;;20.18;100.00;96131.00;10463773;28;1987;-67
2023/07/17 07:02:39;;;;;;;;;;;;;;;20.50;100.00;96133.16;10458949;28;1936;-70
2023/07/17 07:07:42;;;;;;;;;;;;;;;20.11;100.00;96147.09;10456720;28;1954;-68
2023/07/17 07:12:45;;;;;;;;;;;;;;;20.19;100.00;96166.16;10463427;28;1965;-69
2023/07/17 07:17:48;;;;;;;;;;;;;;;20.17;100.00;96164.88;10465706;28;1969;-70
2023/07/17 07:22:51;;;;;;;;;;;;;;;20.42;100.00;96158.53;10455842;28;1917;-68
2023/07/17 07:27:54;;;;;;;;;;;;;;;20.72;100.00;96147.66;10458873;28;2040;-68
2023/07/17 07:32:57;;;;;;;;;;;;;;;21.13;100.00;96155.16;10459325;28;1941;-68
2023/07/17 07:38:00;;;;;;;;;;;;;;;21.56;100.00;96154.81;10458757;28;1942;-68
2023/07/17 07:43:03;;;;;;;;;;;;;;;21.59;100.00;96145.97;10462619;28;5133;-68
2023/07/17 07:48:06;;;;;;;;;;;;;;;22.03;100.00;96143.63;10428576;28;1993;-67
2023/07/17 07:53:08;;;;;;;;;;;;;;;22.17;100.00;96126.13;10464167;28;2111;-68
2023/07/17 07:58:11;;;;;;;;;;;;;;;22.76;100.00;96122.97;10465539;28;2009;-68
2023/07/17 08:03:13;;;;;;;;;;;;;;;22.76;100.00;96126.50;10445230;28;2060;-67
2023/07/17 08:08:16;;;;;;;;;;;;;;;23.17;100.00;96124.66;10455207;28;1979;-67
2023/07/17 08:13:19;;;;;;;;;;;;;;;23.38;100.00;96125.28;10469179;28;1936;-66
2023/07/17 08:18:22;;;;;;;;;;;;;;;23.49;100.00;96125.59;10471396;28;1949;-68
2023/07/17 08:23:25;;;;;;;;;;;;;;;23.61;100.00;96120.09;10468776;28;1914;-69
2023/07/17 08:28:28;;;;;;;;;;;;;;;23.79;100.00;96119.78;10474037;28;1878;-68
2023/07/17 08:33:31;;;;;;;;;;;;;;;24.39;100.00;96118.69;10471072;28;1886;-66
2023/07/17 08:38:34;;;;;;;;;;;;;;;24.50;100.00;96119.75;10469445;28;1906;-69
2023/07/17 08:43:37;;;;;;;;;;;;;;;25.05;100.00;96128.13;10466544;28;5129;-67
2023/07/17 08:48:39;;;;;;;;;;;;;;;24.54;100.00;96142.59;10472261;28;1968;-68
2023/07/17 08:53:42;;;;;;;;;;;;;;;23.71;100.00;96144.28;10441878;28;2002;-67
2023/07/17 08:58:46;;;;;;;;;;;;;;;24.15;100.00;96122.34;10468485;28;2092;-67
2023/07/17 09:03:49;;;;;;;;;;;;;;;24.28;100.00;96112.88;10468840;28;1890;-66
2023/07/17 09:08:53;;;;;;;;;;;;;;;24.05;100.00;96122.06;10467112;28;1998;-68
2023/07/17 09:13:56;;;;;;;;;;;;;;;24.66;100.00;96124.44;10449209;28;1923;-69
2023/07/17 09:19:00;;;;;;;;;;;;;;;25.03;100.00;96122.16;10464114;28;1983;-68
2023/07/17 09:24:04;;;;;;;;;;;;;;;24.76;100.00;96116.47;10463594;28;1918;-70
2023/07/17 09:29:07;;;;;;;;;;;;;;;25.49;100.00;96114.16;10462517;28;1968;-68
2023/07/17 09:34:10;;;;;;;;;;;;;;;26.13;100.00;96105.22;10463947;28;1896;-68
2023/07/17 09:39:12;;;;;;;;;;;;;;;26.21;100.00;96111.66;10466764;28;2365;-71
2023/07/17 09:44:16;;;;;;;;;;;;;;;26.53;100.00;96105.91;10460699;28;5097;-68
2023/07/17 09:49:18;;;;;;;;;;;;;;;27.08;98.65;96106.41;10463724;28;2051;-68
2023/07/17 09:54:21;;;;;;;;;;;;;;;26.30;99.77;96106.69;10463313;28;1839;-68
2023/07/17 09:59:24;;;;;;;;;;;;;;;27.34;96.88;96103.63;10464407;28;2051;-68
2023/07/17 10:04:27;;;;;;;;;;;;;;;27.46;96.75;96106.16;10464416;28;1890;-68
2023/07/17 10:09:30;;;;;;;;;;;;;;;27.30;94.58;96089.00;10470069;28;1846;-68
2023/07/17 10:14:33;;;;;;;;;;;;;;;26.29;98.65;96088.56;10466194;28;1870;-68
2023/07/17 10:19:37;;;;;;;;;;;;;;;25.38;100.00;96091.09;10467788;28;1914;-69
2023/07/17 10:24:40;;;;;;;;;;;;;;;25.56;100.00;96081.28;10443460;28;1874;-69
2023/07/17 10:29:42;;;;;;;;;;;;;;;25.59;100.00;96081.34;10443016;28;1899;-69
2023/07/17 10:34:45;;;;;;;;;;;;;;;26.32;97.67;96076.81;10462905;28;2127;-68
2023/07/17 10:39:47;;;;;;;;;;;;;;;26.29;98.85;96079.53;10459089;28;5110;-68
2023/07/17 10:44:51;;;;;;;;;;;;;;;27.27;93.25;96078.69;10463667;28;1892;-68
2023/07/17 10:49:53;;;;;;;;;;;;;;;27.09;93.64;96067.41;10458830;28;1902;-67
2023/07/17 10:54:56;;;;;;;;;;;;;;;27.97;86.47;96063.38;10458902;28;1879;-68
2023/07/17 10:59:59;;;;;;;;;;;;;;;27.54;85.60;96070.34;10470074;28;1894;-68
2023/07/17 11:05:03;;;;;;;;;;;;;;;27.66;88.03;96050.78;10469871;28;2391;-71
2023/07/17 11:10:07;;;;;;;;;;;;;;;26.73;91.91;96055.06;10469682;28;1945;-71
2023/07/17 11:15:10;;;;;;;;;;;;;;;27.78;84.26;96058.03;10464411;28;1867;-71
2023/07/17 11:20:13;;;;;;;;;;;;;;;27.81;82.90;96052.56;10465595;28;2088;-72
2023/07/17 11:25:16;;;;;;;;;;;;;;;27.63;82.55;96048.78;10473831;28;1917;-71
2023/07/17 11:30:20;;;;;;;;;;;;;;;26.77;88.94;96050.38;10464932;28;2321;-71
2023/07/17 11:35:22;;;;;;;;;;;;;;;27.33;87.76;96038.56;10471570;28;1935;-71
2023/07/17 11:40:25;;;;;;;;;;;;;;;27.50;87.33;96036.41;10475415;28;5082;-72
2023/07/17 11:45:28;;;;;;;;;;;;;;;27.81;81.54;96030.47;10473851;28;1839;-73
2023/07/17 11:50:30;;;;;;;;;;;;;;;28.00;82.19;96027.50;10467558;28;1939;-70
2023/07/17 11:55:33;;;;;;;;;;;;;;;28.13;82.64;96016.97;10475206;28;1864;-73
2023/07/17 12:00:36;;;;;;;;;;;;;;;28.29;79.26;96006.41;10475128;28;1910;-71
2023/07/17 12:05:38;;;;;;;;;;;;;;;28.03;77.36;96009.34;10446272;28;2101;-71
2023/07/17 12:10:41;;;;;;;;;;;;;;;27.88;80.23;96002.13;10462932;28;1891;-72
2023/07/17 12:15:44;;;;;;;;;;;;;;;28.32;79.16;95988.31;10464675;28;1843;-72
2023/07/17 12:20:46;;;;;;;;;;;;;;;28.47;80.19;95978.94;10463689;28;1960;-72
2023/07/17 12:25:49;;;;;;;;;;;;;;;28.64;74.55;95971.16;10459589;28;2265;-71
2023/07/17 12:30:52;;;;;;;;;;;;;;;28.80;75.11;95979.94;10464072;28;1942;-72
2023/07/17 12:35:55;;;;;;;;;;;;;;;29.06;75.85;95959.53;10447933;28;1887;-71
2023/07/17 12:40:57;;;;;;;;;;;;;;;29.13;75.36;95958.75;10467882;28;5070;-71
2023/07/17 12:46:00;;;;;;;;;;;;;;;29.20;73.95;95956.84;10467791;28;1898;-72
2023/07/17 12:51:03;;;;;;;;;;;;;;;29.74;71.46;95954.22;10463684;28;1862;-71
2023/07/17 12:56:06;;;;;;;;;;;;;;;31.29;62.76;95950.88;10460370;28;1867;-75
2023/07/17 13:01:21;;;;;;;;;;;;;;;31.20;63.86;95949.31;10449480;28;1910;-75
2023/07/17 13:06:25;;;;;;;;;;;;;;;30.87;63.69;95942.31;10462784;28;1871;-74
2023/07/17 13:11:28;;;;;;;;;;;;;;;30.82;66.74;95937.16;10460981;28;1820;-75
2023/07/17 13:16:33;;;;;;;;;;;;;;;30.18;68.78;95940.03;10455273;28;2000;-75
2023/07/17 13:21:36;;;;;;;;;;;;;;;29.45;67.46;95943.03;10466004;28;1981;-75
2023/07/17 13:26:40;;;;;;;;;;;;;;;29.31;71.39;95931.94;10463370;28;2072;-76
2023/07/17 13:31:43;;;;;;;;;;;;;;;28.79;73.94;95931.31;10473009;28;1858;-76
2023/07/17 13:36:46;;;;;;;;;;;;;;;28.27;75.44;95920.31;10466657;28;1839;-73
2023/07/17 13:41:49;;;;;;;;;;;;;;;28.26;76.50;95912.44;10467355;28;5140;-71
2023/07/17 13:46:52;;;;;;;;;;;;;;;28.02;79.42;95920.16;10472081;28;1912;-72
2023/07/17 13:51:55;;;;;;;;;;;;;;;28.30;78.25;95918.75;10449874;28;1991;-73
2023/07/17 13:56:57;;;;;;;;;;;;;;;27.79;79.59;95910.47;10465088;28;1878;-74
2023/07/17 14:02:03;;;;;;;;;;;;;;;28.25;75.87;95911.63;10462884;28;1906;-74
2023/07/17 14:07:07;;;;;;;;;;;;;;;28.44;77.31;95920.84;10462427;28;1950;-74
2023/07/17 14:12:10;;;;;;;;;;;;;;;28.06;80.06;95909.13;10472652;28;1824;-74
2023/07/17 14:17:12;;;;;;;;;;;;;;;28.74;76.45;95893.75;10464699;28;2521;-74
2023/07/17 14:22:15;;;;;;;;;;;;;;;29.17;76.15;95893.16;10469557;28;1987;-76
2023/07/17 14:27:18;;;;;;;;;;;;;;;29.33;74.63;95890.84;10467957;28;1965;-75
2023/07/17 14:32:21;;;;;;;;;;;;;;;29.96;69.14;95883.75;10462745;28;1879;-74
2023/07/17 14:37:24;;;;;;;;;;;;;;;29.75;71.17;95878.25;10474883;28;1867;-74
2023/07/17 14:42:26;;;;;;;;;;;;;;;30.80;67.20;95877.72;10474081;28;5301;-74
2023/07/17 14:47:29;;;;;;;;;;;;;;;30.21;69.53;95869.13;10452600;28;1952;-73
2023/07/17 14:52:32;;;;;;;;;;;;;;;30.56;68.50;95866.28;10467737;28;1887;-72
2023/07/17 14:57:35;;;;;;;;;;;;;;;30.57;68.28;95859.53;10458352;28;1907;-72
2023/07/17 15:02:38;;;;;;;;;;;;;;;30.10;68.88;95853.31;10464369;28;1971;-72
2023/07/17 15:07:41;;;;;;;;;;;;;;;29.45;71.32;95843.34;10463201;28;1931;-74
2023/07/17 15:12:44;;;;;;;;;;;;;;;28.65;76.04;95853.81;10453380;28;2251;-74
2023/07/17 15:17:46;;;;;;;;;;;;;;;28.57;76.30;95855.75;10467224;28;1827;-74
2023/07/17 15:22:49;;;;;;;;;;;;;;;28.90;77.00;95856.69;10464920;28;1910;-73
2023/07/17 15:27:52;;;;;;;;;;;;;;;29.71;73.90;95853.31;10464114;28;1832;-71
2023/07/17 15:32:54;;;;;;;;;;;;;;;30.10;69.55;95850.53;10475770;28;1668;-74
2023/07/17 15:37:57;;;;;;;;;;;;;;;30.17;70.73;95844.19;10470456;28;1831;-72
2023/07/17 15:43:00;;;;;;;;;;;;;;;29.92;71.27;95852.50;10463178;28;5097;-71
2023/07/17 15:48:06;;;;;;;;;;;;;;;29.71;70.93;95855.28;10466171;28;1987;-71
2023/07/17 15:53:11;;;;;;;;;;;;;;;29.64;70.17;95844.19;10462521;28;1883;-72
2023/07/17 15:58:14;;;;;;;;;;;;;;;29.69;71.95;95846.56;10466678;28;1840;-71
2023/07/17 16:03:17;;;;;;;;;;;;;;;29.43;76.03;95842.97;10456672;28;1987;-72
2023/07/17 16:08:20;;;;;;;;;;;;;;;28.99;74.29;95838.53;10468019;28;1878;-74
2023/07/17 16:13:23;;;;;;;;;;;;;;;29.15;75.38;95845.72;10466599;28;2208;-75
2023/07/17 16:18:26;;;;;;;;;;;;;;;29.05;77.28;95850.03;10463220;28;1989;-75
2023/07/17 16:23:30;;;;;;;;;;;;;;;29.08;75.31;95844.50;10446345;28;1966;-77
2023/07/17 16:28:33;;;;;;;;;;;;;;;29.07;78.97;95840.16;10477636;28;1903;-75
2023/07/17 16:33:36;;;;;;;;;;;;;;;28.46;76.56;95839.09;10456844;28;1865;-75
2023/07/17 16:38:38;;;;;;;;;;;;;;;27.97;79.75;95845.91;10475397;28;1827;-76
2023/07/17 16:43:41;;;;;;;;;;;;;;;27.93;80.43;95847.84;10478927;28;1977;-75
2023/07/17 16:48:44;;;;;;;;;;;;;;;27.67;81.83;95846.03;10474150;28;1875;-76
2023/07/17 16:53:50;;;;;;;;;;;;;;;27.97;87.80;95845.09;10465364;28;1828;-69
2023/07/17 16:58:54;;;;;;;;;;;;;;;27.83;85.73;95851.31;10470067;28;1934;-70
2023/07/17 17:03:56;;;;;;;;;;;;;;;27.59;86.40;95843.59;10476145;28;1981;-68
2023/07/17 17:09:00;;;;;;;;;;;;;;;27.66;85.37;95849.97;10470912;28;2270;-70
2023/07/17 17:14:02;;;;;;;;;;;;;;;27.61;89.04;95858.63;10472936;28;1880;-69
2023/07/17 17:19:05;;;;;;;;;;;;;;;26.88;92.47;95872.06;10453949;28;1896;-69
2023/07/17 17:24:08;;;;;;;;;;;;;;;27.11;91.25;95869.19;10467251;28;2074;-69
2023/07/17 17:29:11;;;;;;;;;;;;;;;27.17;90.96;95867.69;10450424;28;2024;-69
2023/07/17 17:34:14;;;;;;;;;;;;;;;26.97;92.66;95876.47;10474047;28;1860;-69
2023/07/17 17:39:17;;;;;;;;;;;;;;;26.73;94.97;95867.56;10472153;28;1946;-68
2023/07/17 17:44:20;;;;;;;;;;;;;;;26.56;95.49;95873.63;10472115;28;5159;-67
2023/07/17 17:49:23;;;;;;;;;;;;;;;26.38;96.06;95876.13;10461519;28;1894;-68
2023/07/17 17:54:28;;;;;;;;;;;;;;;26.35;95.70;95885.13;10463896;28;1950;-68
2023/07/17 17:59:32;;;;;;;;;;;;;;;26.45;96.16;95879.00;10451764;28;2035;-67
2023/07/17 18:04:35;;;;;;;;;;;;;;;26.49;96.03;95890.88;10468200;28;2213;-67
2023/07/17 18:09:38;;;;;;;;;;;;;;;26.52;94.16;95895.63;10470541;28;1897;-68
2023/07/17 18:14:40;;;;;;;;;;;;;;;26.31;95.44;95909.88;10467660;28;2148;-68
2023/07/17 18:19:44;;;;;;;;;;;;;;;26.42;94.52;95906.53;10476788;28;1856;-69
2023/07/17 18:24:48;;;;;;;;;;;;;;;26.29;95.83;95914.19;10466918;28;2123;-67
2023/07/17 18:29:51;;;;;;;;;;;;;;;26.07;96.92;95907.53;10462776;28;1871;-68
2023/07/17 18:34:54;;;;;;;;;;;;;;;26.12;95.55;95916.28;10463085;28;1938;-68
2023/07/17 18:39:57;;;;;;;;;;;;;;;25.99;97.53;95919.63;10467573;28;5066;-66
2023/07/17 18:45:00;;;;;;;;;;;;;;;25.79;99.35;95935.44;10466552;28;2023;-68
2023/07/17 18:50:03;;;;;;;;;;;;;;;25.55;99.66;95933.81;10457066;28;2066;-68
2023/07/17 18:55:06;;;;;;;;;;;;;;;25.30;100.00;95933.34;10436968;28;1921;-68
2023/07/17 19:00:09;;;;;;;;;;;;;;;25.12;100.00;95949.50;10464680;28;2384;-68
2023/07/17 19:05:12;;;;;;;;;;;;;;;24.92;100.00;95954.19;10461246;28;2029;-67
2023/07/17 19:10:15;;;;;;;;;;;;;;;24.80;100.00;95955.13;10467460;28;1874;-69
2023/07/17 19:15:20;;;;;;;;;;;;;;;24.70;100.00;95969.44;10465940;28;1983;-67
2023/07/17 19:20:23;;;;;;;;;;;;;;;24.59;100.00;95978.59;10469738;28;1931;-67
2023/07/17 19:25:26;;;;;;;;;;;;;;;24.39;100.00;95980.50;10461830;28;1910;-69
2023/07/17 19:30:28;;;;;;;;;;;;;;;24.31;100.00;95992.47;10461192;28;1907;-68
2023/07/17 19:35:32;;;;;;;;;;;;;;;24.33;100.00;96004.69;10464641;28;1906;-68
2023/07/17 19:40:35;;;;;;;;;;;;;;;24.32;100.00;96016.03;10467773;28;4980;-68
2023/07/17 19:45:38;;;;;;;;;;;;;;;24.15;100.00;96019.94;10463244;28;2018;-68
2023/07/17 19:50:40;;;;;;;;;;;;;;;24.14;100.00;96027.38;10461521;28;1951;-68
2023/07/17 19:55:44;;;;;;;;;;;;;;;24.11;100.00;96030.84;10474568;28;2278;-68
2023/07/17 20:00:47;;;;;;;;;;;;;;;23.95;100.00;96043.75;10476081;28;2024;-68
2023/07/17 20:05:49;;;;;;;;;;;;;;;23.74;100.00;96049.50;10457904;28;1828;-68
2023/07/17 20:10:53;;;;;;;;;;;;;;;23.65;100.00;96059.81;10466294;28;1824;-68
2023/07/17 20:15:55;;;;;;;;;;;;;;;23.41;100.00;96066.19;10472886;28;1910;-68
2023/07/17 20:20:58;;;;;;;;;;;;;;;23.26;100.00;96073.22;10476358;28;2014;-68
2023/07/17 20:26:02;;;;;;;;;;;;;;;23.23;100.00;96073.91;10471043;28;1887;-78
2023/07/17 20:31:05;;;;;;;;;;;;;;;23.13;100.00;96079.88;10471631;28;1871;-74
2023/07/17 20:36:09;;;;;;;;;;;;;;;23.09;100.00;96085.25;10471180;28;2042;-72
2023/07/17 20:41:11;;;;;;;;;;;;;;;23.08;100.00;96078.16;10485743;28;5131;-68
2023/07/17 20:46:14;;;;;;;;;;;;;;;23.20;100.00;96080.09;10471267;28;1839;-67
2023/07/17 20:51:17;;;;;;;;;;;;;;;23.29;100.00;96088.19;10466289;28;2409;-67
2023/07/17 20:56:20;;;;;;;;;;;;;;;23.17;100.00;96092.56;10467769;28;2314;-68
2023/07/17 21:01:24;;;;;;;;;;;;;;;23.02;100.00;96104.22;10471561;28;2224;-68
2023/07/17 21:06:28;;;;;;;;;;;;;;;23.07;100.00;96112.22;10452926;28;1922;-68
2023/07/17 21:11:30;;;;;;;;;;;;;;;22.92;100.00;96107.44;10450340;28;1888;-68
2023/07/17 21:16:34;;;;;;;;;;;;;;;22.56;100.00;96116.44;10476266;28;1886;-67
2023/07/17 21:21:37;;;;;;;;;;;;;;;22.38;100.00;96132.28;10454214;28;1898;-68
2023/07/17 21:26:40;;;;;;;;;;;;;;;22.25;100.00;96125.22;10473576;28;1868;-68
2023/07/17 21:31:43;;;;;;;;;;;;;;;22.15;100.00;96134.66;10458754;28;1918;-67
2023/07/17 21:36:46;;;;;;;;;;;;;;;22.09;100.00;96142.31;10470942;28;1914;-68
2023/07/17 21:41:49;;;;;;;;;;;;;;;22.02;100.00;96157.66;10454826;28;1905;-68
2023/07/17 21:46:54;;;;;;;;;;;;;;;22.00;100.00;96159.91;10465606;28;2400;-67
2023/07/17 21:51:57;;;;;;;;;;;;;;;21.76;100.00;96146.97;10463323;28;1843;-68
2023/07/17 21:57:02;;;;;;;;;;;;;;;21.56;100.00;96154.81;10469832;28;1894;-68
2023/07/17 22:02:07;;;;;;;;;;;;;;;21.44;100.00;96154.78;10463583;28;1963;-67
2023/07/17 22:07:11;;;;;;;;;;;;;;;21.36;100.00;96163.84;10461863;28;1888;-67
2023/07/17 22:12:18;;;;;;;;;;;;;;;21.30;100.00;96163.22;10470550;28;1832;-66
2023/07/17 22:17:25;;;;;;;;;;;;;;;21.20;100.00;96166.34;10467856;28;2033;-68
2023/07/17 22:22:47;;;;;;;;;;;;;;;21.14;100.00;96166.88;10377795;28;1974;-68
2023/07/17 22:27:50;;;;;;;;;;;;;;;21.03;100.00;96174.66;10379905;28;2046;-66
2023/07/17 22:32:53;;;;;;;;;;;;;;;20.87;100.00;96176.38;10429192;28;1927;-68
2023/07/17 22:37:56;;;;;;;;;;;;;;;20.77;100.00;96188.47;10462354;28;1895;-67
2023/07/17 22:42:59;;;;;;;;;;;;;;;20.73;100.00;96190.22;10436848;28;2505;-68
2023/07/17 22:48:02;;;;;;;;;;;;;;;20.72;100.00;96200.34;10460284;28;1903;-68
2023/07/17 22:53:05;;;;;;;;;;;;;;;20.69;100.00;96198.28;10459332;28;2029;-66
2023/07/17 22:58:08;;;;;;;;;;;;;;;20.68;100.00;96204.09;10471567;28;1848;-66
2023/07/17 23:03:10;;;;;;;;;;;;;;;20.82;100.00;96201.94;10470887;28;1906;-68
2023/07/17 23:08:13;;;;;;;;;;;;;;;20.78;100.00;96203.72;10466138;28;1927;-67
2023/07/17 23:13:19;;;;;;;;;;;;;;;20.77;100.00;96207.56;10466700;28;2112;-67
2023/07/17 23:18:22;;;;;;;;;;;;;;;20.67;100.00;96211.47;10464937;28;2275;-68
2023/07/17 23:23:25;;;;;;;;;;;;;;;20.83;100.00;96211.72;10462496;28;2033;-67
2023/07/17 23:28:28;;;;;;;;;;;;;;;20.93;100.00;96211.38;10477439;28;1871;-67
2023/07/17 23:33:32;;;;;;;;;;;;;;;20.90;100.00;96216.69;10472971;28;1956;-67
2023/07/17 23:38:35;;;;;;;;;;;;;;;20.87;100.00;96209.97;10469034;28;1948;-66
2023/07/17 23:43:38;;;;;;;;;;;;;;;20.81;100.00;96218.66;10474835;28;5114;-66
2023/07/17 23:48:42;;;;;;;;;;;;;;;20.69;100.00;96233.81;10470688;28;1878;-66
2023/07/17 23:53:44;;;;;;;;;;;;;;;20.61;100.00;96231.09;10466608;28;1917;-66
2023/07/17 23:58:48;;;;;;;;;;;;;;;20.59;100.00;96222.44;10460578;28;1899;-66
